Time;durP1;ratioP1;P1;durP2;ratioP2;P2;SDS_P1;SDS_P2;PMS_P1;PMS_P2;Temp;Humidity;BMP_temperature;BMP_pressure;BME280_temperature;BME280_humidity;BME280_pressure;Samples;Min_cycle;Max_cycle;Signal;HPM_P1;HPM_P2
2022/08/20 00:02:16;;;;;;;9.57;8.68;;;;;;;21.16;67.21;96468.00;10501191;28;20083;-58
2022/08/20 00:07:35;;;;;;;10.93;9.80;;;;;;;21.14;67.30;96474.53;10497738;28;20049;-58
2022/08/20 00:12:55;;;;;;;10.80;9.80;;;;;;;21.16;67.05;96468.00;10497451;28;20404;-58
2022/08/20 00:18:15;;;;;;;10.45;9.40;;;;;;;21.15;67.31;96467.22;10493246;28;20051;-58
2022/08/20 00:23:36;;;;;;;10.48;9.48;;;;;;;21.14;67.18;96452.09;10498225;28;20087;-58
2022/08/20 00:28:55;;;;;;;10.65;9.68;;;;;;;21.13;67.21;96451.31;10498700;28;20057;-58
2022/08/20 00:34:15;;;;;;;11.43;10.40;;;;;;;21.14;67.19;96452.88;10497453;28;20094;-58
2022/08/20 00:39:34;;;;;;;12.43;11.23;;;;;;;21.15;67.40;96448.25;10498049;28;20052;-58
2022/08/20 00:44:54;;;;;;;13.05;11.73;;;;;;;21.15;67.38;96453.69;10502618;28;20052;-58
2022/08/20 00:50:18;;;;;;;12.23;11.07;;;;;;;21.14;67.28;96450.16;10497839;28;20076;-58
2022/08/20 00:55:38;;;;;;;11.68;10.48;;;;;;;21.14;67.26;96458.28;10497667;28;20053;-58
2022/08/20 01:00:58;;;;;;;12.18;11.07;;;;;;;21.13;67.23;96453.22;10512194;28;20389;-58
2022/08/20 01:06:17;;;;;;;11.05;10.02;;;;;;;21.13;67.39;96451.31;10489191;28;20052;-58
2022/08/20 01:11:37;;;;;;;10.25;9.35;;;;;;;21.14;67.26;96465.63;10531306;28;20431;-57
2022/08/20 01:17:02;;;;;;;10.60;9.68;;;;;;;21.13;67.19;96467.56;10501145;28;20064;-58
2022/08/20 01:28:33;;;;;;;10.40;9.50;;;;;;;21.13;67.18;96464.84;10493939;28;20052;-57
2022/08/20 01:33:54;;;;;;;9.82;8.93;;;;;;;21.13;67.19;96467.56;10509837;28;20044;-57
2022/08/20 01:39:24;;;;;;;9.63;8.82;;;;;;;21.12;67.36;96455.13;10509995;28;20049;-57
2022/08/20 01:44:45;;;;;;;9.20;8.40;;;;;;;21.13;67.21;96443.19;10512684;28;20492;-57
2022/08/20 01:50:21;;;;;;;9.93;9.00;;;;;;;21.13;67.24;96454.00;10496963;28;20053;-58
2022/08/20 01:55:41;;;;;;;10.07;9.07;;;;;;;21.12;67.31;96452.41;10490654;28;20048;-58
2022/08/20 02:01:01;;;;;;;10.65;9.65;;;;;;;21.11;67.28;96448.16;10492533;28;20145;-54
2022/08/20 02:06:24;;;;;;;9.90;9.05;;;;;;;21.13;67.43;96458.66;10496515;28;20051;-57
2022/08/20 02:11:45;;;;;;;10.70;9.70;;;;;;;21.13;67.31;96459.44;10503846;28;20057;-58
2022/08/20 02:17:05;;;;;;;10.27;9.38;;;;;;;21.12;67.39;96460.53;10492936;28;20053;-56
2022/08/20 02:22:30;;;;;;;11.07;10.07;;;;;;;21.13;67.32;96451.31;10495290;28;20064;-57
2022/08/20 02:27:51;;;;;;;10.43;9.48;;;;;;;21.10;67.45;96451.97;10522232;28;20557;-58
2022/08/20 02:33:12;;;;;;;11.05;9.95;;;;;;;21.12;67.44;96446.22;10503180;28;20044;-58
2022/08/20 02:38:33;;;;;;;10.32;9.40;;;;;;;21.12;67.37;96448.94;10501996;28;20052;-58
2022/08/20 02:43:53;;;;;;;10.82;9.82;;;;;;;21.12;67.46;96454.34;10526881;28;20051;-58
2022/08/20 02:49:12;;;;;;;12.05;10.77;;;;;;;21.12;67.57;96465.97;10502606;28;20052;-57
2022/08/20 02:54:32;;;;;;;11.50;10.48;;;;;;;21.11;67.70;96460.88;10515564;28;20408;-58
2022/08/20 02:59:52;;;;;;;11.15;10.05;;;;;;;21.13;67.49;96448.59;10514579;28;20056;-58
2022/08/20 03:05:12;;;;;;;11.63;10.43;;;;;;;21.11;67.79;96445.44;10515079;28;20485;-57
2022/08/20 03:10:33;;;;;;;11.57;10.48;;;;;;;21.11;67.53;96441.91;10502047;28;20095;-57
2022/08/20 03:15:56;;;;;;;12.25;11.05;;;;;;;21.10;67.42;96443.84;10499025;28;20059;-57
2022/08/20 03:21:15;;;;;;;11.60;10.50;;;;;;;21.10;67.50;96438.44;10501038;28;20059;-58
2022/08/20 03:26:36;;;;;;;11.52;10.32;;;;;;;21.10;67.45;96441.13;10508832;28;20136;-58
2022/08/20 03:31:56;;;;;;;10.98;9.98;;;;;;;21.10;67.46;96430.31;10501270;28;20079;-58
2022/08/20 03:37:16;;;;;;;12.25;11.05;;;;;;;21.10;67.58;96438.44;10514147;28;20051;-58
2022/08/20 03:42:36;;;;;;;13.82;12.43;;;;;;;21.10;67.72;96430.31;10513754;28;20056;-58
2022/08/20 03:47:56;;;;;;;13.82;12.45;;;;;;;21.09;67.54;96428.75;10513378;28;20044;-58
2022/08/20 03:53:16;;;;;;;13.48;12.18;;;;;;;21.09;67.62;96439.56;10495144;28;20109;-58
2022/08/20 03:58:36;;;;;;;15.98;12.50;;;;;;;21.09;67.54;96445.00;10490862;28;20496;-58
2022/08/20 04:03:57;;;;;;;24.48;21.88;;;;;;;21.02;69.02;96444.78;10499571;28;20060;-58
2022/08/20 04:09:16;;;;;;;25.08;22.48;;;;;;;20.91;69.84;96449.06;10498695;28;20049;-58
2022/08/20 04:14:36;;;;;;;24.25;21.67;;;;;;;20.84;70.07;96454.31;10503514;28;20048;-58
2022/08/20 04:19:55;;;;;;;25.67;22.67;;;;;;;-146.19;100.00;65364.44;10496673;28;20052;-59
2022/08/20 04:25:14;;;;;;;23.73;21.20;;;;;;;20.74;70.57;96464.44;10492696;28;20411;-59
2022/08/20 04:30:34;;;;;;;23.55;20.92;;;;;;;20.73;70.54;96470.19;10498494;28;20063;-59
2022/08/20 04:35:59;;;;;;;23.65;21.10;;;;;;;20.73;70.56;96462.84;10511335;28;20048;-59
2022/08/20 04:41:19;;;;;;;26.73;22.45;;;;;;;20.68;70.95;96465.81;10524381;28;20491;-60
2022/08/20 04:46:39;;;;;;;24.80;21.23;;;;;;;-146.19;100.00;65364.44;10498201;28;20118;-59
2022/08/20 04:51:59;;;;;;;23.38;20.60;;;;;;;-146.19;100.00;65364.44;10504450;28;20484;-59
2022/08/20 04:57:18;;;;;;;22.55;19.60;;;;;;;-146.19;100.00;65364.44;10519360;28;20090;-59
2022/08/20 05:02:37;;;;;;;22.17;19.92;;;;;;;-146.19;100.00;65364.44;10495815;28;20053;-59
2022/08/20 05:07:57;;;;;;;21.70;18.17;;;;;;;-146.19;100.00;65364.44;10510473;28;20059;-59
2022/08/20 05:13:16;;;;;;;18.88;16.95;;;;;;;-146.19;100.00;65364.44;10498127;28;20388;-59
2022/08/20 05:18:36;;;;;;;17.75;15.93;;;;;;;-146.19;100.00;65364.44;10517027;28;20047;-59
2022/08/20 05:23:55;;;;;;;17.65;15.77;;;;;;;-146.19;100.00;65364.44;10500408;28;20052;-59
2022/08/20 05:29:15;;;;;;;17.85;15.93;;;;;;;-146.19;100.00;65364.44;10517650;28;20404;-59
2022/08/20 05:34:34;;;;;;;16.17;14.48;;;;;;;-146.19;100.00;65364.44;10495672;28;20438;-59
2022/08/20 05:39:54;;;;;;;17.35;15.57;;;;;;;-146.19;100.00;65364.44;10503963;28;20062;-59
2022/08/20 05:45:15;;;;;;;16.58;14.50;;;;;;;-146.19;100.00;65364.44;10511264;28;20127;-59
2022/08/20 05:50:36;;;;;;;16.90;14.82;;;;;;;-146.19;100.00;65364.44;10496049;28;20053;-59
2022/08/20 05:55:55;;;;;;;17.67;13.98;;;;;;;-146.19;100.00;65364.44;10495924;28;20071;-59
2022/08/20 06:01:15;;;;;;;14.40;12.95;;;;;;;-146.19;100.00;65364.44;10487247;28;20056;-59
2022/08/20 06:06:35;;;;;;;14.20;12.70;;;;;;;-146.19;100.00;65364.44;10511890;28;20799;-59
2022/08/20 06:11:55;;;;;;;14.25;12.75;;;;;;;-146.19;100.00;65364.44;10513894;28;20134;-59
2022/08/20 06:17:16;;;;;;;13.98;11.77;;;;;;;-146.19;100.00;65364.44;10492537;28;20048;-59
2022/08/20 06:22:36;;;;;;;12.10;10.48;;;;;;;-146.19;100.00;65364.44;10511070;28;20053;-58
2022/08/20 06:27:56;;;;;;;10.25;9.20;;;;;;;-146.19;100.00;65364.44;10505170;28;20056;-59
2022/08/20 06:33:16;;;;;;;9.10;8.20;;;;;;;-146.19;100.00;65364.44;10502795;28;20052;-60
2022/08/20 06:38:35;;;;;;;7.45;6.80;;;;;;;-146.19;100.00;65364.44;10511941;28;20125;-58
2022/08/20 06:43:55;;;;;;;6.85;6.22;;;;;;;-146.19;100.00;65364.44;10510030;28;20052;-59
2022/08/20 06:49:14;;;;;;;6.70;5.82;;;;;;;-146.19;100.00;65364.44;10501500;28;20064;-59
2022/08/20 06:54:34;;;;;;;6.22;5.57;;;;;;;-146.19;100.00;65364.44;10542065;28;20032;-59
2022/08/20 06:59:54;;;;;;;5.40;4.90;;;;;;;-146.19;100.00;65364.44;10503976;28;20388;-58
2022/08/20 07:05:14;;;;;;;5.13;4.72;;;;;;;-146.19;100.00;65364.44;10501896;28;20048;-58
2022/08/20 07:10:34;;;;;;;5.00;4.60;;;;;;;-146.19;100.00;65364.44;10508393;28;20415;-58
2022/08/20 07:15:54;;;;;;;5.13;4.50;;;;;;;-146.19;100.00;65364.44;10500507;28;20094;-58
2022/08/20 07:21:16;;;;;;;4.22;3.83;;;;;;;-146.19;100.00;65364.44;10512072;28;20060;-58
2022/08/20 07:26:35;;;;;;;3.50;3.20;;;;;;;-146.19;100.00;65364.44;10528361;28;20496;-59
2022/08/20 07:37:38;;;;;;;8.80;4.15;;;;;;;20.38;69.64;96570.72;10500702;28;20044;-58
2022/08/20 07:43:01;;;;;;;4.10;3.38;;;;;;;20.43;69.44;96569.72;10524694;28;20105;-57
2022/08/20 07:48:24;;;;;;;4.80;3.35;;;;;;;20.44;69.52;96576.72;10512066;28;20496;-56
2022/08/20 07:53:45;;;;;;;3.08;2.83;;;;;;;20.48;69.38;96583.03;10505126;28;20052;-57
2022/08/20 07:59:05;;;;;;;4.40;2.97;;;;;;;20.50;69.39;96591.59;10508086;28;20054;-57
2022/08/20 08:04:25;;;;;;;3.53;2.78;;;;;;;20.50;69.18;96591.59;10491858;28;20084;-57
2022/08/20 08:09:45;;;;;;;2.60;2.40;;;;;;;20.51;69.24;96593.19;10504795;28;20052;-57
2022/08/20 08:15:11;;;;;;;3.45;2.40;;;;;;;20.54;69.23;96603.34;10482899;28;20500;-58
2022/08/20 08:20:30;;;;;;;2.88;2.20;;;;;;;20.54;69.09;96606.03;10483064;28;20056;-58
2022/08/20 08:25:50;;;;;;;3.25;2.15;;;;;;;20.54;69.14;96597.91;10500635;28;20040;-59
2022/08/20 08:31:10;;;;;;;2.70;1.92;;;;;;;20.55;68.99;96610.34;10513584;28;20045;-58
2022/08/20 08:36:30;;;;;;;2.13;1.92;;;;;;;20.55;68.93;96615.75;10495694;28;20064;-59
2022/08/20 08:41:50;;;;;;;2.22;2.03;;;;;;;20.55;68.77;96615.75;10584563;22;20065;-52
2022/08/20 08:47:18;;;;;;;2.10;1.88;;;;;;;20.55;68.58;96613.03;10399117;28;20100;-52
2022/08/20 08:52:41;;;;;;;2.80;1.90;;;;;;;20.54;68.41;96619.56;10400227;28;20068;-52
2022/08/20 08:58:02;;;;;;;2.28;1.80;;;;;;;20.55;68.46;96618.47;10427578;28;20041;-52
2022/08/20 09:03:28;;;;;;;2.55;1.80;;;;;;;20.56;68.63;96617.31;10414176;28;20049;-51
2022/08/20 09:09:01;;;;;;;2.33;1.58;;;;;;;20.55;68.54;96632.78;10414929;28;20049;-51
2022/08/20 09:14:23;;;;;;;2.25;2.05;;;;;;;20.49;68.56;96622.50;10399555;28;20149;-51
2022/08/20 09:19:43;;;;;;;3.20;2.40;;;;;;;20.41;68.45;96626.88;10427264;28;20045;-52
2022/08/20 09:25:02;;;;;;;2.53;2.33;;;;;;;20.37;68.40;96630.59;10414174;28;20072;-51
2022/08/20 09:30:21;;;;;;;2.63;2.42;;;;;;;20.32;68.37;96632.34;10401585;28;20082;-52
2022/08/20 09:35:43;;;;;;;2.90;2.70;;;;;;;20.28;68.43;96631.44;10426849;28;20490;-51
2022/08/20 09:41:02;;;;;;;2.60;2.40;;;;;;;20.28;68.35;96644.19;10416841;28;20519;-51
2022/08/20 09:46:22;;;;;;;2.33;2.13;;;;;;;20.23;68.51;96642.50;10413832;28;20060;-51
2022/08/20 09:51:42;;;;;;;2.80;2.50;;;;;;;20.23;68.51;96642.50;10422169;28;20080;-51
2022/08/20 09:57:05;;;;;;;2.20;1.95;;;;;;;20.19;68.36;96640.75;10421395;28;20041;-52
2022/08/20 10:02:24;;;;;;;1.90;1.70;;;;;;;20.24;68.20;96644.06;10406806;28;20057;-52
2022/08/20 10:07:43;;;;;;;2.03;1.88;;;;;;;20.30;68.10;96648.13;10406113;28;20064;-52
2022/08/20 10:13:03;;;;;;;2.80;2.20;;;;;;;20.33;67.89;96644.78;10424199;28;20045;-52
2022/08/20 10:18:23;;;;;;;2.40;2.08;;;;;;;20.37;67.81;96654.94;10421141;28;20057;-51
2022/08/20 10:23:43;;;;;;;5.25;2.28;;;;;;;20.40;67.99;96665.09;10415696;28;20046;-52
2022/08/20 10:29:02;;;;;;;2.92;2.05;;;;;;;20.40;67.95;96657.75;10420024;28;20503;-51
2022/08/20 10:34:24;;;;;;;2.08;1.98;;;;;;;20.41;67.82;96675.59;10419997;28;20053;-51
2022/08/20 10:39:44;;;;;;;1.80;1.70;;;;;;;20.38;67.48;96670.81;10420103;28;20074;-52
2022/08/20 10:45:04;;;;;;;2.10;1.90;;;;;;;20.41;67.53;96674.81;10431207;28;20488;-51
2022/08/20 10:50:23;;;;;;;1.95;1.80;;;;;;;20.41;67.51;96683.69;10432781;28;20444;-54
2022/08/20 10:55:44;;;;;;;2.45;1.85;;;;;;;20.42;67.52;96676.38;10419233;28;20053;-50
2022/08/20 11:01:03;;;;;;;3.30;1.92;;;;;;;20.42;67.48;96669.03;10419476;28;20060;-47
2022/08/20 11:06:23;;;;;;;2.45;1.77;;;;;;;20.44;67.79;96683.00;10432459;28;20041;-49
2022/08/20 11:11:42;;;;;;;2.05;1.83;;;;;;;20.44;67.97;96679.53;10418895;28;20412;-55
2022/08/20 11:17:02;;;;;;;4.53;1.90;;;;;;;20.47;67.97;96676.16;10431862;28;20378;-60
2022/08/20 11:22:22;;;;;;;2.40;2.17;;;;;;;20.45;68.16;96667.59;10431673;28;20404;-59
2022/08/20 11:27:45;;;;;;;2.40;2.20;;;;;;;20.47;68.20;96678.88;10418924;28;20084;-55
2022/08/20 11:33:04;;;;;;;3.28;2.13;;;;;;;20.47;68.21;96685.06;10416281;28;20049;-55
2022/08/20 11:38:24;;;;;;;2.47;2.25;;;;;;;20.48;68.34;96680.44;10418092;28;20475;-54
2022/08/20 11:43:43;;;;;;;2.17;1.98;;;;;;;20.48;68.52;96678.53;10417749;28;20121;-55
2022/08/20 11:49:03;;;;;;;2.60;2.40;;;;;;;20.49;68.59;96685.53;10430860;28;20512;-55
2022/08/20 11:54:22;;;;;;;2.70;2.50;;;;;;;20.50;68.70;96689.03;10417362;28;20050;-55
2022/08/20 11:59:48;;;;;;;3.03;2.60;;;;;;;20.50;68.79;96694.44;10414024;28;20087;-53
2022/08/20 12:05:09;;;;;;;3.05;2.50;;;;;;;20.49;68.79;96693.66;10414327;28;20053;-58
2022/08/20 12:10:29;;;;;;;2.53;2.33;;;;;;;20.50;68.91;96695.25;10415028;28;20507;-59
2022/08/20 12:15:49;;;;;;;2.75;2.50;;;;;;;20.51;69.03;96702.22;10416709;28;20111;-54
2022/08/20 12:21:09;;;;;;;4.43;2.50;;;;;;;20.50;69.07;96706.06;10410194;28;20045;-52
2022/08/20 12:26:28;;;;;;;2.95;2.63;;;;;;;20.52;69.12;96703.00;10429523;28;20389;-57
2022/08/20 12:31:49;;;;;;;2.95;2.63;;;;;;;20.52;69.16;96703.00;10416335;28;20064;-56
2022/08/20 12:37:12;;;;;;;4.68;2.40;;;;;;;20.52;69.12;96713.81;10415847;28;20119;-56
2022/08/20 12:42:31;;;;;;;4.03;2.53;;;;;;;20.52;69.15;96713.81;10414840;28;20065;-54
2022/08/20 12:47:51;;;;;;;4.57;2.53;;;;;;;20.52;69.21;96708.41;10428331;28;20049;-52
2022/08/20 12:53:11;;;;;;;3.05;2.38;;;;;;;20.52;69.27;96709.22;10409954;28;20045;-47
2022/08/20 12:58:31;;;;;;;2.97;2.22;;;;;;;20.52;69.19;96708.41;10408835;28;20054;-52
2022/08/20 13:03:50;;;;;;;3.28;2.20;;;;;;;20.53;69.14;96712.72;10414676;28;20053;-54
2022/08/20 13:09:10;;;;;;;14.48;2.70;;;;;;;20.55;68.95;96718.59;10414920;28;20053;-59
2022/08/20 13:14:30;;;;;;;2.67;2.10;;;;;;;20.56;69.51;96717.44;10417269;28;20095;-63
2022/08/20 13:19:49;;;;;;;2.00;1.90;;;;;;;20.57;70.11;96716.34;10412741;28;20111;-68
2022/08/20 13:25:10;;;;;;;2.13;1.92;;;;;;;20.57;70.54;96719.06;10413685;28;20052;-65
2022/08/20 13:30:30;;;;;;;2.28;1.80;;;;;;;20.57;71.01;96716.34;10408317;28;20057;-64
2022/08/20 13:35:50;;;;;;;2.60;2.40;;;;;;;20.57;70.99;96716.34;10414491;28;20102;-65
2022/08/20 13:41:09;;;;;;;3.35;2.05;;;;;;;20.56;70.95;96712.03;10417705;28;20045;-49
2022/08/20 13:46:28;;;;;;;3.95;2.35;;;;;;;20.58;70.89;96714.41;10413448;28;20558;-46
2022/08/20 13:51:48;;;;;;;2.63;2.15;;;;;;;20.58;70.85;96711.72;10413609;28;20076;-51
2022/08/20 13:57:13;;;;;;;2.38;2.17;;;;;;;20.57;70.85;96715.56;10421816;28;20544;-51
2022/08/20 14:02:33;;;;;;;2.15;2.00;;;;;;;20.58;70.68;96711.72;10407358;28;20080;-50
2022/08/20 14:07:52;;;;;;;2.47;2.30;;;;;;;20.58;70.49;96709.00;10413637;28;20053;-47
2022/08/20 14:13:12;;;;;;;4.65;2.78;;;;;;;20.56;70.16;96698.50;10412615;28;20061;-49
2022/08/20 14:18:31;;;;;;;3.60;2.60;;;;;;;20.56;70.13;96695.81;10412575;28;20057;-52
2022/08/20 14:23:50;;;;;;;2.85;2.58;;;;;;;20.55;69.97;96692.31;10412586;28;20049;-49
2022/08/20 14:29:10;;;;;;;3.22;2.92;;;;;;;20.57;69.95;96700.09;10417970;28;20054;-47
2022/08/20 14:34:30;;;;;;;4.32;3.40;;;;;;;20.55;69.75;96689.59;10413590;28;20041;-50
2022/08/20 14:39:53;;;;;;;5.05;3.05;;;;;;;20.55;69.04;96694.22;10405161;28;20064;-52
2022/08/20 14:45:12;;;;;;;7.10;3.83;;;;;;;20.58;70.06;96693.59;10423288;28;20100;-47
2022/08/20 14:50:33;;;;;;;8.43;4.55;;;;;;;20.61;70.36;96695.63;10418822;28;20084;-55
2022/08/20 14:55:53;;;;;;;4.65;4.15;;;;;;;20.59;70.24;96689.75;10432949;28;20142;-50
2022/08/20 15:01:12;;;;;;;7.40;5.28;;;;;;;20.58;69.79;96685.47;10413049;28;20057;-48
2022/08/20 15:06:31;;;;;;;7.05;4.60;;;;;;;20.58;69.79;96690.88;10411425;28;20103;-52
2022/08/20 15:11:51;;;;;;;9.05;5.65;;;;;;;20.57;69.87;96691.97;10432428;28;20440;-47
2022/08/20 15:17:17;;;;;;;11.68;5.65;;;;;;;20.59;69.90;96695.19;10431896;28;20045;-49
2022/08/20 15:22:38;;;;;;;11.73;6.07;;;;;;;20.60;69.94;96698.66;10413187;28;20065;-47
2022/08/20 15:27:59;;;;;;;11.00;5.93;;;;;;;20.61;70.01;96706.47;10431659;28;20541;-53
2022/08/20 15:33:18;;;;;;;9.27;5.20;;;;;;;20.61;70.08;96705.69;10418209;28;20111;-51
2022/08/20 15:38:38;;;;;;;7.72;5.00;;;;;;;20.61;70.22;96713.78;10417307;28;20062;-52
2022/08/20 15:43:57;;;;;;;5.82;4.22;;;;;;;20.62;70.16;96724.28;10418359;28;20057;-52
2022/08/20 15:49:17;;;;;;;7.15;4.53;;;;;;;20.60;70.03;96721.13;10417372;28;20060;-45
2022/08/20 15:54:37;;;;;;;5.95;4.35;;;;;;;20.60;69.77;96725.72;10402531;28;20396;-49
2022/08/20 16:00:11;;;;;;;5.82;4.47;;;;;;;20.60;69.89;96726.53;10414008;28;20132;-50
2022/08/20 16:06:00;;;;;;;8.20;4.82;;;;;;;20.60;69.86;96737.38;10410732;28;20049;-50
2022/08/20 16:11:38;;;;;;;4.88;4.45;;;;;;;20.59;70.00;96733.06;10408542;28;20496;-51
2022/08/20 16:17:07;;;;;;;8.17;4.00;;;;;;;20.61;69.90;96743.56;10415863;28;20045;-48
2022/08/20 16:22:29;;;;;;;5.95;4.30;;;;;;;20.60;69.81;96750.91;10401852;28;20057;-51
2022/08/20 16:27:54;;;;;;;5.13;4.55;;;;;;;20.60;69.70;96750.91;10415771;28;20492;-48
2022/08/20 16:33:21;;;;;;;5.03;4.53;;;;;;;20.60;69.75;96759.03;10400481;28;20060;-48
2022/08/20 16:38:45;;;;;;;5.78;4.68;;;;;;;20.61;69.68;96762.50;10415415;28;20057;-48
2022/08/20 16:44:28;;;;;;;5.10;4.70;;;;;;;20.60;69.79;96769.84;10400658;28;20053;-47
2022/08/20 16:50:10;;;;;;;5.28;4.78;;;;;;;20.60;69.92;96775.25;10409878;28;20508;-49
2022/08/20 16:55:30;;;;;;;4.90;4.45;;;;;;;20.60;69.85;96775.25;10413460;28;20038;-49
2022/08/20 17:01:12;;;;;;;5.57;4.57;;;;;;;20.60;69.88;96777.16;10414395;28;20053;-50
2022/08/20 17:06:36;;;;;;;4.82;4.13;;;;;;;20.60;69.86;96775.25;10415109;28;20056;-48
2022/08/20 17:12:15;;;;;;;4.80;4.40;;;;;;;20.61;69.85;96776.06;10414711;28;20099;-50
2022/08/20 17:17:36;;;;;;;5.40;4.55;;;;;;;20.60;69.78;96786.09;10414727;28;20061;-46
2022/08/20 17:23:10;;;;;;;4.80;4.40;;;;;;;20.60;69.80;96780.69;10427524;28;20033;-48
2022/08/20 17:28:30;;;;;;;5.00;4.60;;;;;;;20.60;69.68;96783.38;10399578;28;20134;-48
2022/08/20 17:33:50;;;;;;;4.60;4.22;;;;;;;20.60;69.72;96775.25;10413845;28;20053;-48
2022/08/20 17:39:17;;;;;;;5.13;4.72;;;;;;;20.60;69.53;96780.69;10413435;28;20566;-49
2022/08/20 17:44:41;;;;;;;5.18;4.32;;;;;;;20.61;69.62;96781.47;10413928;28;20053;-48
2022/08/20 17:50:18;;;;;;;4.80;4.40;;;;;;;20.61;69.48;96786.88;10398233;28;20049;-46
2022/08/20 17:55:38;;;;;;;5.35;4.85;;;;;;;20.60;69.54;96788.78;10414062;28;20171;-45
2022/08/20 18:00:58;;;;;;;4.57;3.80;;;;;;;20.60;69.59;96794.22;10414827;28;20061;-46
2022/08/20 18:06:33;;;;;;;4.55;4.20;;;;;;;20.60;69.65;96793.41;10421853;28;20416;-47
2022/08/20 18:12:10;;;;;;;5.25;4.78;;;;;;;20.60;69.56;96806.94;10406783;28;20053;-48
2022/08/20 18:17:51;;;;;;;5.68;4.60;;;;;;;20.59;69.41;96806.16;10426304;28;20041;-45
2022/08/20 18:23:27;;;;;;;5.18;4.63;;;;;;;20.61;69.53;96819.34;10419231;28;20515;-56
2022/08/20 18:28:55;;;;;;;4.90;4.30;;;;;;;20.60;69.36;96829.41;10401701;28;20049;-58
2022/08/20 18:34:19;;;;;;;5.07;4.57;;;;;;;20.59;69.66;96825.09;10419004;28;20045;-60
2022/08/20 18:39:44;;;;;;;4.70;4.30;;;;;;;20.61;69.77;96825.56;10423221;28;20057;-69
2022/08/20 18:45:05;;;;;;;4.60;4.20;;;;;;;20.61;69.70;96832.88;10417535;28;20062;-65
2022/08/20 18:50:46;;;;;;;4.18;3.85;;;;;;;20.61;69.91;96836.38;10419911;28;20049;-62
2022/08/20 18:56:09;;;;;;;4.47;4.07;;;;;;;20.61;69.74;96839.09;10431498;28;20041;-60
2022/08/20 19:01:31;;;;;;;4.72;4.10;;;;;;;20.61;69.78;96830.19;10403683;28;20501;-46
2022/08/20 19:06:57;;;;;;;5.25;4.35;;;;;;;-146.19;100.00;65364.44;10404407;28;20076;-48
2022/08/20 19:12:26;;;;;;;4.00;3.70;;;;;;;20.61;69.76;96841.78;10408688;28;20115;-49
2022/08/20 19:18:11;;;;;;;9.00;4.10;;;;;;;-146.19;100.00;65364.44;10426501;28;20048;-47
2022/08/20 19:23:37;;;;;;;3.90;3.60;;;;;;;-146.19;100.00;65364.44;10421073;28;20493;-49
2022/08/20 19:29:05;;;;;;;4.20;3.88;;;;;;;20.63;70.18;96842.25;10416630;28;20034;-46
2022/08/20 19:34:25;;;;;;;4.20;3.90;;;;;;;20.64;70.55;96832.22;10409927;28;20053;-49
2022/08/20 19:39:45;;;;;;;5.10;4.07;;;;;;;20.63;70.53;96834.13;10425898;28;20489;-48
2022/08/20 19:45:28;;;;;;;4.15;3.85;;;;;;;20.62;70.58;96832.56;10415415;28;20049;-61
2022/08/20 19:50:58;;;;;;;4.30;3.97;;;;;;;20.63;70.35;96839.53;10430993;28;20041;-47
2022/08/20 19:56:21;;;;;;;4.20;3.80;;;;;;;20.64;70.50;96835.72;10416915;28;20049;-49
2022/08/20 20:01:40;;;;;;;4.15;3.85;;;;;;;20.64;70.45;96830.31;10411978;28;20058;-47
2022/08/20 20:07:00;;;;;;;4.93;3.80;;;;;;;20.63;70.51;96828.72;10430493;28;20408;-49
2022/08/20 20:12:20;;;;;;;3.90;3.60;;;;;;;20.63;70.72;96833.34;10416158;28;20407;-49
2022/08/20 20:17:39;;;;;;;4.07;3.78;;;;;;;20.63;70.56;96817.09;10416417;28;20076;-50
2022/08/20 20:23:01;;;;;;;4.10;3.80;;;;;;;20.63;70.68;96826.00;10401575;28;20053;-48
2022/08/20 20:28:30;;;;;;;3.92;3.63;;;;;;;20.63;70.70;96822.53;10428733;28;20377;-48
2022/08/20 20:33:53;;;;;;;4.20;3.80;;;;;;;20.63;70.58;96814.41;10415183;28;20127;-48
2022/08/20 20:39:25;;;;;;;3.97;3.67;;;;;;;20.64;70.57;96818.69;10400515;28;20119;-49
2022/08/20 20:44:45;;;;;;;4.00;3.70;;;;;;;20.63;70.64;96811.69;10429044;28;20056;-48
2022/08/20 20:50:07;;;;;;;4.25;3.85;;;;;;;20.64;70.68;96818.69;10414958;28;20053;-50
2022/08/20 20:55:31;;;;;;;8.07;4.10;;;;;;;20.63;70.65;96815.19;10400602;28;20408;-50
2022/08/20 21:00:51;;;;;;;4.45;4.15;;;;;;;20.62;70.67;96816.31;10408213;28;20049;-49
2022/08/20 21:06:10;;;;;;;4.05;3.75;;;;;;;20.63;70.70;96812.47;10413424;28;20045;-48
2022/08/20 21:11:29;;;;;;;4.18;3.78;;;;;;;20.62;70.63;96810.91;10415003;28;20045;-50
2022/08/20 21:16:49;;;;;;;4.43;4.03;;;;;;;20.62;70.71;96805.50;10423143;28;20045;-50
2022/08/20 21:22:09;;;;;;;4.00;3.70;;;;;;;20.62;70.60;96805.50;10414727;28;20054;-49
2022/08/20 21:27:29;;;;;;;4.65;4.25;;;;;;;20.62;70.71;96805.50;10407359;28;20060;-48
2022/08/20 21:32:48;;;;;;;4.57;4.18;;;;;;;20.62;70.59;96799.28;10427362;28;20052;-49
2022/08/20 21:38:08;;;;;;;4.10;3.80;;;;;;;20.62;70.63;96797.38;10422681;28;20049;-49
2022/08/20 21:43:28;;;;;;;3.85;3.55;;;;;;;20.62;70.60;96802.78;10427430;28;20500;-48
2022/08/20 21:48:47;;;;;;;3.95;3.65;;;;;;;20.62;70.71;96800.09;10427823;28;20064;-50
2022/08/20 21:54:06;;;;;;;4.30;4.00;;;;;;;20.62;70.47;96805.50;10427555;28;20455;-49
2022/08/20 21:59:27;;;;;;;6.82;4.18;;;;;;;20.61;70.70;96803.13;10423401;28;20075;-50
2022/08/20 22:04:47;;;;;;;4.20;3.80;;;;;;;20.62;70.59;96807.38;10427749;28;20042;-50
2022/08/20 22:10:07;;;;;;;4.30;3.90;;;;;;;20.62;70.66;96804.69;10440377;28;20036;-49
2022/08/20 22:15:27;;;;;;;4.35;3.67;;;;;;;20.62;70.41;96810.91;10426512;28;20049;-49
2022/08/20 22:20:47;;;;;;;3.90;3.60;;;;;;;20.62;70.36;96807.38;10426672;28;20672;-49
2022/08/20 22:26:07;;;;;;;3.75;3.28;;;;;;;20.62;70.52;96801.97;10426294;28;20056;-49
2022/08/20 22:31:29;;;;;;;3.70;3.40;;;;;;;20.61;70.43;96798.50;10420936;28;20060;-50
2022/08/20 22:36:50;;;;;;;4.07;3.67;;;;;;;20.61;70.35;96793.06;10411315;28;20049;-49
2022/08/20 22:42:10;;;;;;;4.40;4.05;;;;;;;20.60;70.21;96796.91;10425614;28;20106;-50
2022/08/20 22:47:29;;;;;;;4.10;3.72;;;;;;;20.60;70.41;96796.09;10423375;28;20049;-49
2022/08/20 22:52:49;;;;;;;4.20;3.83;;;;;;;20.60;70.23;96788.78;10432681;28;20451;-49
2022/08/20 22:58:09;;;;;;;4.03;3.72;;;;;;;20.60;70.30;96791.50;10407783;28;20046;-49
2022/08/20 23:03:29;;;;;;;4.05;3.75;;;;;;;20.61;70.12;96795.00;10419109;28;20103;-49
2022/08/20 23:08:48;;;;;;;4.53;4.22;;;;;;;20.61;70.14;96793.06;10418831;28;20046;-50
2022/08/20 23:14:08;;;;;;;4.25;3.95;;;;;;;20.60;70.14;96791.50;10418168;28;20469;-50
2022/08/20 23:19:28;;;;;;;4.05;3.75;;;;;;;20.60;70.21;96790.69;10424886;28;20053;-48
2022/08/20 23:24:47;;;;;;;4.25;3.95;;;;;;;20.61;70.10;96786.88;10418528;28;20053;-49
2022/08/20 23:30:07;;;;;;;4.65;4.25;;;;;;;20.60;69.98;96790.69;10421797;28;20045;-48
2022/08/20 23:35:28;;;;;;;4.13;3.75;;;;;;;20.60;70.03;96791.50;10417453;28;20496;-50
2022/08/20 23:40:47;;;;;;;3.85;3.55;;;;;;;20.60;70.00;96785.28;10417273;28;20069;-50
2022/08/20 23:46:06;;;;;;;3.83;3.53;;;;;;;20.59;69.98;96779.09;10429250;28;20477;-49
2022/08/20 23:51:26;;;;;;;4.53;4.13;;;;;;;20.59;69.99;96779.09;10410967;28;20049;-49
2022/08/20 23:56:46;;;;;;;4.05;3.75;;;;;;;20.60;70.03;96771.75;10429968;28;20381;-50
